Terminal Aerodrome Forecast
Issued by NWS Louisville, KY

Home | Current Version | Previous Version | Text Only | Print | Product List | Glossary On
Versions: 1 2 3 4 5 6 7 8 9 10 11 12 13 14 15
014
FTUS43 KLMK 212321
TAFBWG
TAF
KBWG 212321Z 2200/2224 06004KT P6SM SKC
     FM221000 00000KT 3SM BR SKC
      TEMPO 2211/2212 3/4SM BR
     FM221300 11003KT P6SM FEW250=

USA.gov is the U.S. government's official web portal to all federal, state and local government web resources and services.